createdAt,value
2018-02-22T00:01:08.167Z,95381.90
2018-02-22T00:03:37.320Z,95378.70
2018-02-22T00:06:06.478Z,95373.95
2018-02-22T00:08:35.695Z,95377.67
2018-02-22T00:11:04.875Z,95379.33
2018-02-22T00:13:34.010Z,95377.60
2018-02-22T00:16:03.183Z,95370.45
2018-02-22T00:18:32.425Z,95371.53
2018-02-22T00:21:01.590Z,95369.09
2018-02-22T00:23:30.770Z,95370.04
2018-02-22T00:25:59.912Z,95365.05
2018-02-22T00:28:29.091Z,95365.20
2018-02-22T00:30:58.236Z,95363.62
2018-02-22T00:33:27.398Z,95356.20
2018-02-22T00:35:56.569Z,95356.34
2018-02-22T00:38:25.743Z,95350.77
2018-02-22T00:40:54.928Z,95356.11
2018-02-22T00:43:24.090Z,95350.98
2018-02-22T00:45:53.260Z,95349.04
2018-02-22T00:48:22.426Z,95344.66
2018-02-22T00:50:51.650Z,95349.51
2018-02-22T00:53:20.831Z,95344.69
2018-02-22T00:55:50.028Z,95341.47
2018-02-22T00:58:20.430Z,95337.42
2018-02-22T01:00:49.568Z,95335.66
2018-02-22T01:03:18.760Z,95328.81
2018-02-22T01:05:47.958Z,95333.66
2018-02-22T01:08:17.635Z,95326.08
2018-02-22T01:10:46.825Z,95325.67
2018-02-22T01:13:16.003Z,95324.34
2018-02-22T01:15:45.210Z,95323.30
2018-02-22T01:18:14.386Z,95320.63
2018-02-22T01:20:43.563Z,95321.66
2018-02-22T01:23:12.811Z,95319.52
2018-02-22T01:25:41.954Z,95319.16
2018-02-22T01:28:11.139Z,95319.44
2018-02-22T01:30:40.272Z,95316.59
2018-02-22T01:33:09.438Z,95314.74
2018-02-22T01:35:38.630Z,95313.42
2018-02-22T01:38:07.887Z,95310.11
2018-02-22T01:40:43.471Z,95318.77
2018-02-22T01:43:12.632Z,95313.95
2018-02-22T01:48:17.115Z,95308.34
2018-02-22T01:50:49.263Z,95310.01
2018-02-22T01:53:18.452Z,95306.96
2018-02-22T01:55:47.638Z,95301.38
2018-02-22T02:00:52.018Z,95296.34
2018-02-22T02:03:21.380Z,95298.23
2018-02-22T02:08:26.800Z,95302.83
2018-02-22T02:10:55.966Z,95301.91
2018-02-22T02:13:25.165Z,95299.61
2018-02-22T02:15:54.352Z,95301.30
2018-02-22T02:20:58.779Z,95289.88
2018-02-22T02:23:27.917Z,95290.19
2018-02-22T02:25:57.088Z,95289.29
2018-02-22T02:28:26.302Z,95283.89
2018-02-22T02:30:55.466Z,95285.02
2018-02-22T02:33:24.676Z,95284.55
2018-02-22T02:35:53.839Z,95277.40
2018-02-22T02:38:23.019Z,95272.62
2018-02-22T02:40:52.191Z,95270.19
2018-02-22T02:43:32.477Z,95274.13
2018-02-22T02:46:01.672Z,95264.19
2018-02-22T02:48:32.852Z,95264.06
2018-02-22T02:51:02.032Z,95263.62
2018-02-22T02:53:31.221Z,95253.02
2018-02-22T02:56:00.419Z,95255.97
2018-02-22T02:58:29.603Z,95252.48
2018-02-22T03:00:58.792Z,95250.28
2018-02-22T03:03:27.993Z,95252.29
2018-02-22T03:05:57.122Z,95245.17
2018-02-22T03:08:26.283Z,95237.91
2018-02-22T03:10:55.420Z,95241.08
2018-02-22T03:13:24.580Z,95241.18
2018-02-22T03:15:53.786Z,95243.34
2018-02-22T03:18:22.956Z,95240.77
2018-02-22T03:20:52.131Z,95243.16
2018-02-22T03:23:21.266Z,95236.95
2018-02-22T03:25:50.476Z,95236.45
2018-02-22T03:28:19.635Z,95236.04
2018-02-22T03:30:48.795Z,95233.31
2018-02-22T03:33:17.976Z,95229.12
2018-02-22T03:35:47.136Z,95233.11
2018-02-22T03:38:16.292Z,95229.73
2018-02-22T03:40:49.467Z,95231.66
2018-02-22T03:43:22.916Z,95226.41
2018-02-22T03:45:52.078Z,95224.22
2018-02-22T03:48:21.283Z,95221.98
2018-02-22T03:50:50.447Z,95221.98
2018-02-22T03:53:19.603Z,95221.25
2018-02-22T03:55:48.762Z,95216.54
2018-02-22T03:58:17.956Z,95216.62
2018-02-22T04:00:47.178Z,95219.94
2018-02-22T04:03:16.477Z,95224.86
2018-02-22T04:05:45.643Z,95222.34
2018-02-22T04:08:14.835Z,95224.88
2018-02-22T04:10:43.975Z,95218.12
2018-02-22T04:13:13.243Z,95224.06
2018-02-22T04:15:42.375Z,95219.16
2018-02-22T04:20:46.734Z,95213.25
2018-02-22T04:23:15.897Z,95212.82
2018-02-22T04:25:45.055Z,95211.69
2018-02-22T04:28:19.111Z,95203.08
2018-02-22T04:30:48.291Z,95207.89
2018-02-22T04:33:18.454Z,95208.52
2018-02-22T04:35:47.600Z,95208.46
2018-02-22T04:38:16.763Z,95211.34
2018-02-22T04:40:45.903Z,95214.70
2018-02-22T04:43:15.072Z,95210.44
2018-02-22T04:45:44.244Z,95208.34
2018-02-22T04:48:13.457Z,95212.30
2018-02-22T04:50:42.632Z,95209.81
2018-02-22T04:53:11.842Z,95210.49
2018-02-22T04:55:41.015Z,95212.56
2018-02-22T04:58:10.179Z,95211.34
2018-02-22T05:00:39.377Z,95208.70
2018-02-22T05:03:08.548Z,95212.28
2018-02-22T05:05:37.686Z,95216.69
2018-02-22T05:08:06.908Z,95215.31
2018-02-22T05:10:36.052Z,95217.17
2018-02-22T05:13:06.201Z,95212.00
2018-02-22T05:15:35.368Z,95210.67
2018-02-22T05:18:04.571Z,95207.53
2018-02-22T05:20:33.744Z,95209.50
2018-02-22T05:23:02.883Z,95207.75
2018-02-22T05:25:32.070Z,95214.98
2018-02-22T05:28:02.255Z,95210.77
2018-02-22T05:30:43.998Z,95205.59
2018-02-22T05:33:13.159Z,95205.23
2018-02-22T05:35:42.325Z,95203.58
2018-02-22T05:38:11.486Z,95208.92
2018-02-22T05:40:40.666Z,95209.50
2018-02-22T05:43:09.837Z,95199.97
2018-02-22T05:45:38.968Z,95207.44
2018-02-22T05:48:08.186Z,95201.94
2018-02-22T05:53:13.586Z,95213.25
2018-02-22T05:55:42.738Z,95208.98
2018-02-22T05:58:11.902Z,95220.98
2018-02-22T06:00:41.130Z,95213.15
2018-02-22T06:03:10.373Z,95211.48
2018-02-22T06:05:39.557Z,95216.30
2018-02-22T06:08:08.747Z,95211.03
2018-02-22T06:10:37.914Z,95209.52
2018-02-22T06:13:07.104Z,95209.69
2018-02-22T06:15:36.244Z,95209.78
2018-02-22T06:18:05.445Z,95209.66
2018-02-22T06:20:35.612Z,95206.83
2018-02-22T06:23:04.783Z,95210.88
2018-02-22T06:25:33.938Z,95212.14
2018-02-22T06:28:03.083Z,95208.13
2018-02-22T06:33:07.523Z,95216.33
2018-02-22T06:35:36.680Z,95218.30
2018-02-22T06:38:05.831Z,95230.31
2018-02-22T06:40:35.041Z,95224.84
2018-02-22T06:43:04.189Z,95227.15
2018-02-22T06:45:33.381Z,95218.05
2018-02-22T06:48:02.546Z,95222.92
2018-02-22T06:50:31.714Z,95219.52
2018-02-22T06:53:00.905Z,95225.20
2018-02-22T06:55:30.044Z,95224.94
2018-02-22T06:57:59.255Z,95224.24
2018-02-22T07:00:28.531Z,95227.85
2018-02-22T07:02:57.697Z,95234.88
2018-02-22T07:05:26.870Z,95233.11
2018-02-22T07:07:56.061Z,95228.73
2018-02-22T07:10:25.219Z,95231.28
2018-02-22T07:12:54.436Z,95229.48
2018-02-22T07:15:23.576Z,95232.78
2018-02-22T07:17:52.747Z,95225.06
2018-02-22T07:20:25.572Z,95231.89
2018-02-22T07:22:54.731Z,95233.86
2018-02-22T07:25:24.795Z,95223.67
2018-02-22T07:27:53.959Z,95230.41
2018-02-22T07:30:23.122Z,95223.25
2018-02-22T07:32:52.315Z,95223.72
2018-02-22T07:35:21.453Z,95223.66
2018-02-22T07:37:50.639Z,95221.03
2018-02-22T07:40:19.863Z,95230.16
2018-02-22T07:42:49.023Z,95229.00
2018-02-22T07:45:18.215Z,95222.80
2018-02-22T07:47:47.387Z,95229.29
2018-02-22T07:50:16.607Z,95229.09
2018-02-22T07:52:45.797Z,95229.87
2018-02-22T07:55:15.059Z,95229.92
2018-02-22T07:57:44.215Z,95227.73
2018-02-22T08:00:13.554Z,95223.21
2018-02-22T08:02:43.116Z,95221.89
2018-02-22T08:07:47.512Z,95217.27
2018-02-22T08:10:16.715Z,95217.33
2018-02-22T08:12:45.885Z,95216.31
2018-02-22T08:15:15.084Z,95214.27
2018-02-22T08:17:44.203Z,95221.23
2018-02-22T08:20:13.394Z,95220.78
2018-02-22T08:22:42.530Z,95218.80
2018-02-22T08:25:11.704Z,95220.55
2018-02-22T08:27:40.840Z,95220.22
2018-02-22T08:30:10.019Z,95218.46
2018-02-22T08:32:39.275Z,95220.91
2018-02-22T08:35:08.524Z,95213.03
2018-02-22T08:37:37.754Z,95215.82
2018-02-22T08:40:06.999Z,95213.86
2018-02-22T08:42:36.375Z,95216.20
2018-02-22T08:45:05.659Z,95220.73
2018-02-22T08:47:34.943Z,95213.03
2018-02-22T08:50:04.196Z,95212.13
2018-02-22T08:52:33.363Z,95215.22
2018-02-22T08:55:02.540Z,95212.92
2018-02-22T08:57:31.680Z,95215.16
2018-02-22T09:00:00.850Z,95216.60
2018-02-22T09:02:31.004Z,95215.70
2018-02-22T09:05:00.163Z,95215.09
2018-02-22T09:07:29.327Z,95219.31
2018-02-22T09:09:58.495Z,95218.41
2018-02-22T09:12:27.672Z,95212.04
2018-02-22T09:14:56.809Z,95214.29
2018-02-22T09:17:26.010Z,95219.94
2018-02-22T09:19:55.170Z,95220.98
2018-02-22T09:22:24.335Z,95215.17
2018-02-22T09:24:53.497Z,95222.50
2018-02-22T09:27:22.664Z,95219.97
2018-02-22T09:29:51.879Z,95218.61
2018-02-22T09:32:21.145Z,95219.05
2018-02-22T09:34:50.331Z,95220.78
2018-02-22T09:37:20.453Z,95223.01
2018-02-22T09:39:49.631Z,95219.47
2018-02-22T09:42:18.824Z,95218.89
2018-02-22T09:44:48.915Z,95213.54
2018-02-22T09:47:18.075Z,95214.12
2018-02-22T09:49:47.579Z,95210.66
2018-02-22T09:52:16.739Z,95216.23
2018-02-22T09:54:45.880Z,95216.49
2018-02-22T09:57:15.047Z,95216.28
2018-02-22T09:59:44.220Z,95210.91
2018-02-22T10:02:19.658Z,95216.44
2018-02-22T10:04:48.811Z,95217.11
2018-02-22T10:07:18.963Z,95212.98
2018-02-22T10:09:48.119Z,95222.27
2018-02-22T10:12:17.280Z,95218.67
2018-02-22T10:14:46.437Z,95217.90
2018-02-22T10:17:16.095Z,95218.22
2018-02-22T10:19:45.267Z,95220.54
2018-02-22T10:22:14.411Z,95224.77
2018-02-22T10:24:43.580Z,95220.11
2018-02-22T10:27:13.473Z,95220.69
2018-02-22T10:29:42.650Z,95222.60
2018-02-22T10:32:12.575Z,95215.56
2018-02-22T10:34:41.739Z,95220.39
2018-02-22T10:37:11.899Z,95220.03
2018-02-22T10:39:41.118Z,95225.21
2018-02-22T10:42:11.682Z,95218.31
2018-02-22T10:44:40.880Z,95224.23
2018-02-22T10:47:11.370Z,95219.98
2018-02-22T10:49:40.532Z,95224.11
2018-02-22T10:52:10.965Z,95214.66
2018-02-22T10:54:40.135Z,95212.42
2018-02-22T10:57:10.920Z,95221.18
2018-02-22T10:59:40.155Z,95217.28
2018-02-22T11:02:14.912Z,95210.97
2018-02-22T11:04:44.084Z,95211.20
2018-02-22T11:07:13.636Z,95216.02
2018-02-22T11:09:42.791Z,95218.20
2018-02-22T11:12:13.089Z,95213.41
2018-02-22T11:14:42.255Z,95208.97
2018-02-22T11:17:12.707Z,95209.27
2018-02-22T11:22:18.123Z,95215.22
2018-02-22T11:24:47.313Z,95206.60
2018-02-22T11:27:17.833Z,95211.97
2018-02-22T11:29:46.989Z,95201.10
2018-02-22T11:32:16.158Z,95197.55
2018-02-22T11:34:45.288Z,95195.31
2018-02-22T11:37:14.476Z,95196.23
2018-02-22T11:39:43.716Z,95205.77
2018-02-22T11:42:13.324Z,95197.63
2018-02-22T11:44:42.517Z,95197.78
2018-02-22T11:47:12.768Z,95196.07
2018-02-22T11:49:41.937Z,95193.74
2018-02-22T11:52:12.516Z,95192.90
2018-02-22T11:54:41.677Z,95188.12
2018-02-22T11:57:12.127Z,95192.05
2018-02-22T11:59:41.311Z,95188.97
2018-02-22T12:02:12.000Z,95182.11
2018-02-22T12:04:41.153Z,95180.96
2018-02-22T12:07:11.689Z,95180.44
2018-02-22T12:09:40.838Z,95176.37
2018-02-22T12:14:45.187Z,95185.88
2018-02-22T12:17:14.345Z,95181.11
2018-02-22T12:19:46.137Z,95179.46
2018-02-22T12:22:17.829Z,95180.69
2018-02-22T12:24:48.108Z,95181.70
2018-02-22T12:27:17.277Z,95182.11
2018-02-22T12:29:46.520Z,95182.69
2018-02-22T12:32:15.679Z,95185.80
2018-02-22T12:34:44.820Z,95183.56
2018-02-22T12:37:13.970Z,95185.07
2018-02-22T12:39:43.827Z,95183.34
2018-02-22T12:42:12.981Z,95185.56
2018-02-22T12:44:43.465Z,95183.64
2018-02-22T12:47:12.628Z,95181.86
2018-02-22T12:49:43.256Z,95191.25
2018-02-22T12:52:12.424Z,95178.91
2018-02-22T12:54:43.045Z,95182.20
2018-02-22T12:57:12.260Z,95183.30
2018-02-22T12:59:42.355Z,95183.65
2018-02-22T13:02:11.551Z,95178.03
2018-02-22T13:04:42.499Z,95188.90
2018-02-22T13:07:15.218Z,95185.48
2018-02-22T13:09:44.850Z,95183.96
2018-02-22T13:12:14.042Z,95176.46
2018-02-22T13:14:44.051Z,95175.38
2018-02-22T13:17:13.351Z,95177.13
2018-02-22T13:19:43.835Z,95174.42
2018-02-22T13:22:13.005Z,95173.33
2018-02-22T13:24:43.155Z,95175.45
2018-02-22T13:27:12.356Z,95176.72
2018-02-22T13:32:16.838Z,95165.16
2018-02-22T13:34:45.960Z,95166.59
2018-02-22T13:39:50.308Z,95177.25
2018-02-22T13:42:19.498Z,95182.10
2018-02-22T13:45:06.484Z,95173.38
2018-02-22T13:47:35.661Z,95172.42
2018-02-22T13:53:15.421Z,95184.66
2018-02-22T13:55:44.583Z,95182.17
2018-02-22T13:58:13.804Z,95183.93
2018-02-22T14:03:36.211Z,95181.39
2018-02-22T14:06:05.383Z,95182.98
2018-02-22T14:11:17.243Z,95190.01
2018-02-22T14:13:46.416Z,95182.09
2018-02-22T14:16:15.583Z,95187.64
2018-02-22T14:18:44.738Z,95187.22
2018-02-22T14:21:13.892Z,95185.58
2018-02-22T14:23:43.684Z,95179.90
2018-02-22T14:26:13.162Z,95184.98
2018-02-22T14:28:43.397Z,95184.98
2018-02-22T14:31:12.556Z,95183.58
2018-02-22T14:33:42.888Z,95188.08
2018-02-22T14:36:12.331Z,95179.35
2018-02-22T14:38:43.115Z,95186.98
2018-02-22T14:41:12.276Z,95188.05
2018-02-22T14:43:42.763Z,95183.01
2018-02-22T14:46:11.916Z,95184.27
2018-02-22T14:48:42.502Z,95182.19
2018-02-22T14:51:11.654Z,95184.61
2018-02-22T14:53:45.565Z,95181.30
2018-02-22T14:56:19.505Z,95178.41
2018-02-22T15:01:30.200Z,95182.16
2018-02-22T15:04:04.317Z,95180.84
2018-02-22T15:06:37.474Z,95180.87
2018-02-22T15:09:11.332Z,95192.05
2018-02-22T15:11:40.549Z,95189.95
2018-02-22T15:16:47.234Z,95201.59
2018-02-22T15:19:16.411Z,95195.65
2018-02-22T15:21:45.614Z,95203.57
2018-02-22T15:24:15.397Z,95213.99
2018-02-22T15:26:46.355Z,95211.45
2018-02-22T15:29:26.247Z,95212.66
2018-02-22T15:31:55.431Z,95208.80
2018-02-22T15:34:28.868Z,95211.18
2018-02-22T15:37:04.141Z,95211.98
2018-02-22T15:39:33.326Z,95214.48
2018-02-22T15:42:02.524Z,95216.06
2018-02-22T15:44:31.707Z,95219.48
2018-02-22T15:47:00.890Z,95222.25
2018-02-22T15:49:30.040Z,95217.57
2018-02-22T15:51:59.199Z,95219.67
2018-02-22T15:54:28.402Z,95214.16
2018-02-22T15:56:57.689Z,95218.87
2018-02-22T15:59:26.863Z,95214.47
2018-02-22T16:01:56.050Z,95222.46
2018-02-22T16:04:25.695Z,95212.98
2018-02-22T16:06:54.857Z,95215.16
2018-02-22T16:09:24.014Z,95218.34
2018-02-22T16:11:53.220Z,95219.17
2018-02-22T16:14:22.415Z,95224.42
2018-02-22T16:16:51.571Z,95224.69
2018-02-22T16:19:20.750Z,95220.95
2018-02-22T16:21:49.923Z,95222.83
2018-02-22T16:24:19.291Z,95227.66
2018-02-22T16:26:48.479Z,95230.97
2018-02-22T16:31:53.899Z,95232.41
2018-02-22T16:34:23.140Z,95238.59
2018-02-22T16:36:52.299Z,95232.48
2018-02-22T16:39:21.523Z,95241.20
2018-02-22T16:41:50.876Z,95240.20
2018-02-22T16:44:20.156Z,95237.95
2018-02-22T16:46:49.332Z,95239.91
2018-02-22T16:49:18.514Z,95236.44
2018-02-22T16:51:47.709Z,95245.97
2018-02-22T16:54:17.828Z,95245.95
2018-02-22T16:56:47.017Z,95252.18
2018-02-22T16:59:16.181Z,95259.25
2018-02-22T17:01:45.588Z,95256.89
2018-02-22T17:04:14.767Z,95253.75
2018-02-22T17:06:43.963Z,95258.92
2018-02-22T17:09:13.137Z,95255.78
2018-02-22T17:11:42.337Z,95256.95
2018-02-22T17:14:11.476Z,95257.38
2018-02-22T17:16:40.641Z,95267.59
2018-02-22T17:19:09.800Z,95264.36
2018-02-22T17:21:38.968Z,95265.28
2018-02-22T17:24:08.163Z,95267.14
2018-02-22T17:26:42.784Z,95269.63
2018-02-22T17:31:55.703Z,95267.27
2018-02-22T17:42:48.164Z,95281.46
2018-02-22T17:45:17.344Z,95286.66
2018-02-22T17:47:46.531Z,95280.06
2018-02-22T17:50:15.746Z,95284.53
2018-02-22T17:52:44.902Z,95287.91
2018-02-22T17:55:14.107Z,95284.31
2018-02-22T17:57:43.319Z,95282.86
2018-02-22T18:00:13.651Z,95281.95
2018-02-22T18:02:42.862Z,95289.47
2018-02-22T18:07:48.092Z,95278.91
2018-02-22T18:10:17.297Z,95279.64
2018-02-22T18:12:46.547Z,95283.49
2018-02-22T18:15:15.699Z,95276.99
2018-02-22T18:17:44.945Z,95282.11
2018-02-22T18:20:14.184Z,95282.54
2018-02-22T18:22:43.427Z,95282.75
2018-02-22T18:25:12.632Z,95283.59
2018-02-22T18:27:47.752Z,95283.19
2018-02-22T18:30:16.978Z,95273.66
2018-02-22T18:32:46.167Z,95273.16
2018-02-22T18:35:15.381Z,95274.14
2018-02-22T18:37:49.991Z,95275.53
2018-02-22T18:40:24.756Z,95276.51
2018-02-22T18:42:53.980Z,95267.70
2018-02-22T18:45:23.156Z,95269.24
2018-02-22T18:47:53.408Z,95264.52
2018-02-22T18:50:22.618Z,95262.07
2018-02-22T18:54:07.372Z,95262.47
2018-02-22T18:56:36.551Z,95257.83
2018-02-22T18:59:05.728Z,95258.31
2018-02-22T19:01:34.948Z,95259.73
2018-02-22T19:04:04.129Z,95263.13
2018-02-22T19:06:33.272Z,95261.30
2018-02-22T19:09:02.491Z,95261.59
2018-02-22T19:11:31.659Z,95260.17
2018-02-22T19:16:36.145Z,95265.42
2018-02-22T19:19:07.370Z,95263.11
2018-02-22T19:21:36.937Z,95253.27
2018-02-22T19:24:06.947Z,95252.69
2018-02-22T19:26:36.368Z,95254.69
2018-02-22T19:31:40.786Z,95248.94
2018-02-22T19:34:12.004Z,95251.91
2018-02-22T19:36:41.205Z,95244.64
2018-02-22T19:39:10.402Z,95245.92
2018-02-22T19:41:39.981Z,95236.23
2018-02-22T19:44:09.268Z,95239.38
2018-02-22T19:46:38.439Z,95240.83
2018-02-22T19:49:08.651Z,95249.81
2018-02-22T19:51:38.006Z,95249.98
2018-02-22T19:54:07.392Z,95243.39
2018-02-22T19:56:36.544Z,95246.57
2018-02-22T19:59:06.479Z,95247.05
2018-02-22T20:01:35.710Z,95242.22
2018-02-22T20:04:04.960Z,95243.26
2018-02-22T20:06:34.183Z,95245.67
2018-02-22T20:09:04.133Z,95245.31
2018-02-22T20:11:33.542Z,95243.56
2018-02-22T20:14:03.212Z,95249.77
2018-02-22T20:16:32.647Z,95237.71
2018-02-22T20:19:01.889Z,95244.58
2018-02-22T20:21:31.019Z,95245.16
2018-02-22T20:24:01.509Z,95239.98
2018-02-22T20:26:30.696Z,95235.38
2018-02-22T20:29:01.565Z,95240.92
2018-02-22T20:31:31.374Z,95234.00
2018-02-22T20:34:02.214Z,95235.95
2018-02-22T20:39:07.972Z,95234.91
2018-02-22T20:41:37.504Z,95237.80
2018-02-22T20:44:08.459Z,95233.80
2018-02-22T20:46:38.193Z,95233.30
2018-02-22T20:49:07.436Z,95237.02
2018-02-22T20:54:17.278Z,95234.22
2018-02-22T20:56:46.543Z,95229.98
2018-02-22T20:59:17.047Z,95240.59
2018-02-22T21:01:48.004Z,95242.38
2018-02-22T21:04:17.881Z,95239.39
2018-02-22T21:06:47.455Z,95234.15
2018-02-22T21:09:16.639Z,95236.19
2018-02-22T21:11:47.524Z,95229.02
2018-02-22T21:14:16.797Z,95228.77
2018-02-22T21:16:46.183Z,95220.69
2018-02-22T21:19:15.467Z,95222.92
2018-02-22T21:21:45.215Z,95219.53
2018-02-22T21:24:15.122Z,95215.91
2018-02-22T21:26:44.488Z,95216.98
2018-02-22T21:29:15.438Z,95219.28
2018-02-22T21:31:44.953Z,95220.97
2018-02-22T21:34:14.403Z,95223.42
2018-02-22T21:36:48.675Z,95229.23
2018-02-22T21:39:17.889Z,95230.02
2018-02-22T21:41:47.314Z,95228.95
2018-02-22T21:44:16.683Z,95236.30
2018-02-22T21:46:47.144Z,95236.19
2018-02-22T21:51:52.173Z,95245.56
2018-02-22T21:54:21.646Z,95236.41
2018-02-22T21:56:51.030Z,95240.02
2018-02-22T22:01:55.834Z,95235.06
2018-02-22T22:04:25.249Z,95234.59
2018-02-22T22:06:54.543Z,95237.60
2018-02-22T22:09:27.006Z,95233.30
2018-02-22T22:11:56.822Z,95234.13
2018-02-22T22:17:04.800Z,95228.00
2018-02-22T22:19:34.191Z,95222.70
2018-02-22T22:22:03.472Z,95225.83
2018-02-22T22:24:32.735Z,95223.53
2018-02-22T22:27:02.168Z,95222.25
2018-02-22T22:29:33.350Z,95224.69
2018-02-22T22:34:43.346Z,95227.32
2018-02-22T22:37:14.039Z,95220.80
2018-02-22T22:39:44.091Z,95229.02
2018-02-22T22:42:13.286Z,95223.56
2018-02-22T22:44:42.450Z,95225.41
2018-02-22T22:47:11.643Z,95217.93
2018-02-22T22:49:40.879Z,95224.30
2018-02-22T22:52:10.047Z,95226.09
2018-02-22T22:54:39.232Z,95219.57
2018-02-22T22:57:08.371Z,95227.00
2018-02-22T22:59:41.423Z,95219.16
2018-02-22T23:02:10.773Z,95226.36
2018-02-22T23:04:39.999Z,95227.78
2018-02-22T23:07:09.151Z,95222.42
2018-02-22T23:09:38.387Z,95225.90
2018-02-22T23:12:07.583Z,95218.19
2018-02-22T23:14:36.756Z,95223.17
2018-02-22T23:17:05.909Z,95212.47
2018-02-22T23:19:35.091Z,95214.27
2018-02-22T23:22:04.291Z,95203.82
2018-02-22T23:24:33.451Z,95205.69
2018-02-22T23:27:02.583Z,95211.14
2018-02-22T23:29:31.750Z,95213.58
2018-02-22T23:32:00.896Z,95210.70
2018-02-22T23:34:30.160Z,95211.34
2018-02-22T23:36:59.319Z,95212.34
2018-02-22T23:39:28.671Z,95210.41
2018-02-22T23:42:03.399Z,95213.70
2018-02-22T23:47:08.895Z,95210.88
2018-02-22T23:49:38.051Z,95209.70
2018-02-22T23:52:07.248Z,95206.77
2018-02-22T23:57:11.643Z,95207.78
2018-02-22T23:59:40.862Z,95210.92
